Time;durP1;ratioP1;P1;durP2;ratioP2;P2;SDS_P1;SDS_P2;PMS_P1;PMS_P2;Temp;Humidity;BMP_temperature;BMP_pressure;BME280_temperature;BME280_humidity;BME280_pressure;Samples;Min_cycle;Max_cycle;Signal;HPM_P1;HPM_P2
2022/03/05 00:00:12;;;;;;;18.95;8.85;;;-0.40;99.90;;;;;;5067861;28;20054;-82
2022/03/05 00:02:38;;;;;;;22.52;9.73;;;-0.40;99.90;;;;;;5063799;23;20047;-82
2022/03/05 00:05:04;;;;;;;17.73;8.65;;;-0.40;99.90;;;;;;5048828;28;20040;-82
2022/03/05 00:07:30;;;;;;;20.20;9.43;;;-0.40;99.90;;;;;;5048407;28;20039;-82
2022/03/05 00:09:56;;;;;;;19.75;9.15;;;-0.40;99.90;;;;;;5047851;28;20093;-82
2022/03/05 00:12:22;;;;;;;18.92;8.52;;;0.10;99.90;;;;;;5064571;28;20391;-82
2022/03/05 00:14:48;;;;;;;20.75;9.02;;;-0.40;99.90;;;;;;5047559;28;20077;-83
2022/03/05 00:17:13;;;;;;;17.38;8.63;;;-0.50;99.90;;;;;;5063989;28;20044;-82
2022/03/05 00:19:39;;;;;;;20.38;9.35;;;0.10;99.90;;;;;;5047800;28;20399;-82
2022/03/05 00:22:05;;;;;;;17.48;8.70;;;-0.50;99.90;;;;;;5047474;28;20087;-82
2022/03/05 00:24:31;;;;;;;19.17;8.70;;;-0.20;99.90;;;;;;5047072;28;20467;-82
2022/03/05 00:26:57;;;;;;;21.88;9.00;;;-0.50;99.90;;;;;;5063351;28;20119;-83
2022/03/05 00:29:24;;;;;;;22.40;9.73;;;-0.50;99.90;;;;;;5064412;28;20045;-82
2022/03/05 00:31:50;;;;;;;21.15;8.82;;;-0.60;99.90;;;;;;5048263;28;20081;-82
2022/03/05 00:34:16;;;;;;;18.40;8.65;;;-0.60;99.90;;;;;;5046992;28;20052;-83
2022/03/05 00:36:41;;;;;;;19.52;8.70;;;-0.60;99.90;;;;;;5064076;28;20045;-82
2022/03/05 00:39:07;;;;;;;21.55;9.70;;;-0.60;99.90;;;;;;5063805;28;20403;-82
2022/03/05 00:41:33;;;;;;;20.23;9.10;;;-0.60;99.90;;;;;;5046524;28;20108;-82
2022/03/05 00:43:59;;;;;;;21.15;9.77;;;-0.60;99.90;;;;;;5063571;28;20048;-82
2022/03/05 00:46:25;;;;;;;19.10;9.02;;;-0.60;99.90;;;;;;5046617;28;20071;-82
2022/03/05 00:48:52;;;;;;;19.88;8.93;;;-0.60;99.90;;;;;;5064793;28;20036;-82
2022/03/05 00:51:18;;;;;;;22.08;9.20;;;-0.60;99.90;;;;;;5046783;28;20043;-82
2022/03/05 00:53:44;;;;;;;18.35;8.63;;;-0.60;99.90;;;;;;5047457;28;20051;-82
2022/03/05 00:56:10;;;;;;;20.63;9.38;;;-0.60;99.90;;;;;;5046682;28;20052;-82
2022/03/05 00:58:35;;;;;;;18.50;8.77;;;-0.60;99.90;;;;;;5046055;28;20124;-82
2022/03/05 01:01:01;;;;;;;22.67;9.48;;;-0.70;99.90;;;;;;5046967;28;20036;-83
2022/03/05 01:03:27;;;;;;;22.30;9.25;;;-0.60;99.90;;;;;;5063638;28;20049;-82
2022/03/05 01:05:54;;;;;;;20.33;9.15;;;-0.50;99.90;;;;;;5062997;28;20487;-82
2022/03/05 01:08:20;;;;;;;18.58;8.77;;;-0.70;99.90;;;;;;5063551;28;20490;-82
2022/03/05 01:10:45;;;;;;;21.02;9.38;;;-0.80;99.90;;;;;;5063437;28;20045;-83
2022/03/05 01:13:12;;;;;;;20.10;8.88;;;-0.80;99.90;;;;;;5047289;28;20446;-83
2022/03/05 01:15:37;;;;;;;21.65;9.63;;;-0.80;99.90;;;;;;5050048;28;20036;-83
2022/03/05 01:18:03;;;;;;;18.77;8.60;;;-0.80;99.90;;;;;;5070789;28;20051;-82
2022/03/05 01:20:29;;;;;;;20.77;8.70;;;-0.80;99.90;;;;;;5052859;28;20118;-82
2022/03/05 01:22:55;;;;;;;18.40;8.82;;;-0.80;99.90;;;;;;5082257;28;20052;-83
2022/03/05 01:25:20;;;;;;;19.88;8.73;;;-0.70;99.90;;;;;;5063664;28;20048;-83
2022/03/05 01:27:46;;;;;;;23.63;9.30;;;-0.90;99.90;;;;;;5063023;28;20077;-82
2022/03/05 01:30:12;;;;;;;22.02;8.93;;;-0.90;99.90;;;;;;5080474;28;20150;-83
2022/03/05 01:32:38;;;;;;;20.52;9.50;;;-1.00;99.90;;;;;;5063478;28;20098;-82
2022/03/05 01:35:04;;;;;;;18.45;8.82;;;-1.00;99.90;;;;;;5063236;28;20051;-82
2022/03/05 01:37:30;;;;;;;19.85;8.95;;;-1.00;99.90;;;;;;5046801;28;20039;-82
2022/03/05 01:39:56;;;;;;;21.90;9.20;;;-1.00;99.90;;;;;;5062646;28;20095;-82
2022/03/05 01:42:23;;;;;;;20.83;8.98;;;-0.50;99.90;;;;;;5045469;28;20483;-82
2022/03/05 01:44:49;;;;;;;17.75;8.40;;;-1.00;99.90;;;;;;5080487;28;20064;-82
2022/03/05 01:47:15;;;;;;;19.92;8.57;;;-1.00;99.90;;;;;;5062717;28;20040;-82
2022/03/05 01:49:41;;;;;;;20.23;8.27;;;-1.00;99.90;;;;;;5080539;28;20055;-82
2022/03/05 01:52:07;;;;;;;20.20;9.02;;;-1.10;99.90;;;;;;5045269;28;20040;-82
2022/03/05 01:54:33;;;;;;;20.77;8.50;;;-1.00;99.90;;;;;;5045754;28;20132;-83
2022/03/05 01:57:00;;;;;;;20.73;9.05;;;-1.10;99.90;;;;;;5062221;28;20497;-82
2022/03/05 01:59:26;;;;;;;23.17;9.65;;;-1.10;99.90;;;;;;5061224;28;20106;-83
2022/03/05 02:01:52;;;;;;;19.92;9.15;;;-1.10;99.90;;;;;;5061426;28;20056;-82
2022/03/05 02:04:18;;;;;;;19.38;8.65;;;-1.10;99.90;;;;;;5044800;28;20044;-83
2022/03/05 02:06:44;;;;;;;17.88;7.95;;;-0.90;99.90;;;;;;5079453;28;20049;-82
2022/03/05 02:09:09;;;;;;;19.38;8.43;;;-1.20;99.90;;;;;;5061715;28;20056;-82
2022/03/05 02:11:35;;;;;;;18.33;8.70;;;-1.20;99.90;;;;;;5061215;28;20040;-82
2022/03/05 02:14:01;;;;;;;22.85;8.98;;;-1.30;99.90;;;;;;5061809;28;20052;-82
2022/03/05 02:16:26;;;;;;;20.45;8.98;;;-1.20;99.90;;;;;;5044959;28;20041;-82
2022/03/05 02:18:58;;;;;;;21.17;8.30;;;-1.30;99.90;;;;;;5081065;28;20043;-83
2022/03/05 02:21:25;;;;;;;20.17;8.40;;;-0.90;99.90;;;;;;5079834;28;20368;-83
2022/03/05 02:23:51;;;;;;;22.40;9.13;;;-1.30;99.90;;;;;;5045145;28;20095;-82
2022/03/05 02:26:17;;;;;;;20.95;9.23;;;-1.30;99.90;;;;;;5062212;28;20048;-82
2022/03/05 02:28:42;;;;;;;20.50;9.18;;;-1.30;99.90;;;;;;5044706;28;20040;-82
2022/03/05 02:31:08;;;;;;;18.27;8.52;;;-1.30;99.90;;;;;;5061608;28;20124;-82
2022/03/05 02:33:35;;;;;;;21.40;8.93;;;-1.40;99.90;;;;;;5061829;28;20116;-82
2022/03/05 02:36:01;;;;;;;19.88;8.85;;;-1.30;99.90;;;;;;5061289;28;20044;-82
2022/03/05 02:38:28;;;;;;;18.45;7.70;;;-0.80;99.90;;;;;;5062285;28;20040;-82
2022/03/05 02:40:54;;;;;;;20.67;8.85;;;-1.40;99.90;;;;;;5065659;28;20060;-82
2022/03/05 02:43:25;;;;;;;17.92;8.07;;;-1.40;99.90;;;;;;5051663;28;20426;-82
2022/03/05 02:45:51;;;;;;;19.98;8.73;;;-1.40;99.90;;;;;;5051782;28;20045;-82
2022/03/05 02:48:17;;;;;;;21.08;8.27;;;-1.40;99.90;;;;;;5051709;28;20048;-82
2022/03/05 02:50:45;;;;;;;20.48;8.15;;;-1.40;99.90;;;;;;5086353;28;20159;-82
2022/03/05 02:53:11;;;;;;;20.13;9.32;;;-1.50;99.90;;;;;;5068858;28;20040;-82
2022/03/05 02:55:38;;;;;;;21.15;8.45;;;-1.50;99.90;;;;;;5051898;28;20098;-83
2022/03/05 02:58:04;;;;;;;20.20;8.30;;;-1.50;99.90;;;;;;5067877;28;20541;-82
2022/03/05 03:00:30;;;;;;;21.98;9.35;;;-1.40;99.90;;;;;;5085822;28;20040;-82
2022/03/05 03:02:56;;;;;;;18.27;8.25;;;-1.50;99.90;;;;;;5068002;28;20057;-82
2022/03/05 03:05:22;;;;;;;19.52;8.65;;;-1.50;99.90;;;;;;5085805;28;20368;-82
2022/03/05 03:07:48;;;;;;;19.05;8.38;;;-1.20;99.90;;;;;;5067984;28;20083;-82
2022/03/05 03:10:15;;;;;;;22.75;8.68;;;-1.50;99.90;;;;;;5085464;28;20040;-82
2022/03/05 03:12:41;;;;;;;18.23;8.23;;;-1.50;99.90;;;;;;5069474;28;20040;-83
2022/03/05 03:15:09;;;;;;;20.60;8.95;;;-1.50;99.90;;;;;;5097944;28;20052;-83
2022/03/05 03:17:41;;;;;;;17.05;8.20;;;-1.50;99.90;;;;;;5096898;28;20037;-82
2022/03/05 03:20:07;;;;;;;21.48;8.60;;;-1.50;99.90;;;;;;5087412;28;20076;-82
2022/03/05 03:22:33;;;;;;;17.20;8.15;;;-1.50;99.90;;;;;;5051887;28;20457;-82
2022/03/05 03:24:59;;;;;;;18.58;8.23;;;-1.50;99.90;;;;;;5051808;28;20047;-82
2022/03/05 03:27:24;;;;;;;19.83;7.80;;;-0.90;99.90;;;;;;5068706;28;20043;-83
2022/03/05 03:29:50;;;;;;;20.98;8.45;;;-1.50;99.90;;;;;;5051406;28;20094;-82
2022/03/05 03:32:15;;;;;;;19.55;7.88;;;-1.20;99.90;;;;;;5062932;28;20060;-82
2022/03/05 03:34:41;;;;;;;16.88;7.97;;;-1.50;99.90;;;;;;5082545;28;20043;-82
2022/03/05 03:37:07;;;;;;;18.17;8.00;;;-1.50;99.90;;;;;;5069279;28;20045;-82
2022/03/05 03:39:32;;;;;;;18.10;7.97;;;-1.60;99.90;;;;;;5068659;28;20056;-82
2022/03/05 03:41:58;;;;;;;20.98;8.15;;;-1.60;99.90;;;;;;5068733;28;20133;-82
2022/03/05 03:44:24;;;;;;;20.15;8.95;;;-1.50;99.90;;;;;;5086402;28;20519;-82
2022/03/05 03:46:49;;;;;;;18.00;8.23;;;-1.60;99.90;;;;;;5068300;28;20056;-82
2022/03/05 03:49:15;;;;;;;19.63;8.23;;;-1.60;99.90;;;;;;5069472;28;20048;-83
2022/03/05 03:51:41;;;;;;;17.88;8.50;;;-1.60;99.90;;;;;;5067021;28;20477;-82
2022/03/05 03:54:06;;;;;;;19.50;7.90;;;-1.60;99.90;;;;;;5048643;28;20041;-82
2022/03/05 03:56:32;;;;;;;17.70;7.78;;;-1.30;99.90;;;;;;5055538;28;20403;-82
2022/03/05 03:58:58;;;;;;;21.52;8.85;;;-1.60;99.90;;;;;;5072788;28;20045;-82
2022/03/05 04:01:23;;;;;;;17.63;8.20;;;-1.60;99.90;;;;;;5070530;28;20040;-82
2022/03/05 04:03:49;;;;;;;18.45;7.75;;;-1.60;99.90;;;;;;5064699;28;20061;-82
2022/03/05 04:06:15;;;;;;;16.40;7.95;;;-1.60;99.90;;;;;;5065026;28;20044;-83
2022/03/05 04:08:43;;;;;;;17.15;6.90;;;-1.40;99.90;;;;;;5064582;28;20056;-82
2022/03/05 04:11:11;;;;;;;15.65;7.05;;;-1.60;99.90;;;;;;5048419;28;20080;-82
2022/03/05 04:13:37;;;;;;;16.30;6.70;;;-1.60;99.90;;;;;;5048688;28;20048;-83
2022/03/05 04:16:03;;;;;;;15.88;6.95;;;-1.10;99.90;;;;;;5064542;28;20051;-82
2022/03/05 04:18:29;;;;;;;17.33;7.53;;;-1.60;99.90;;;;;;5047890;28;20049;-83
2022/03/05 04:20:55;;;;;;;15.93;6.85;;;-1.60;99.90;;;;;;5064366;28;20109;-82
2022/03/05 04:23:21;;;;;;;18.23;7.68;;;-1.60;99.90;;;;;;5047718;28;20055;-82
2022/03/05 04:25:46;;;;;;;16.90;7.60;;;-1.60;99.90;;;;;;5047581;28;20045;-83
2022/03/05 04:28:12;;;;;;;15.93;7.32;;;-1.60;99.90;;;;;;5082017;28;20043;-82
2022/03/05 04:30:38;;;;;;;19.55;7.45;;;-1.60;99.90;;;;;;5063815;28;20051;-83
2022/03/05 04:33:03;;;;;;;17.85;6.88;;;-1.60;99.90;;;;;;5064563;28;20044;-82
2022/03/05 04:35:29;;;;;;;18.80;8.10;;;-1.50;99.90;;;;;;5047359;28;20055;-82
2022/03/05 04:37:55;;;;;;;15.23;6.53;;;-1.50;99.90;;;;;;5063936;28;20104;-83
2022/03/05 04:40:22;;;;;;;16.95;7.85;;;-1.50;99.90;;;;;;5082127;28;20040;-83
2022/03/05 04:42:48;;;;;;;14.77;7.22;;;-1.50;99.90;;;;;;5064031;28;20068;-82
2022/03/05 04:45:14;;;;;;;18.65;7.35;;;-1.60;99.90;;;;;;5082518;28;20400;-83
2022/03/05 04:47:40;;;;;;;18.27;7.30;;;-1.60;99.90;;;;;;5082081;28;20826;-82
2022/03/05 04:50:07;;;;;;;14.63;6.93;;;-1.60;99.90;;;;;;5082245;28;20407;-82
2022/03/05 04:52:34;;;;;;;15.68;6.95;;;-1.50;99.90;;;;;;5063850;28;20044;-82
2022/03/05 04:55:00;;;;;;;15.93;7.15;;;-1.50;99.90;;;;;;5063504;28;20036;-83
2022/03/05 04:57:26;;;;;;;17.10;7.35;;;-1.50;99.90;;;;;;5063681;28;20040;-82
2022/03/05 04:59:52;;;;;;;16.75;6.78;;;-1.50;99.90;;;;;;5081463;28;20093;-83
2022/03/05 05:02:18;;;;;;;15.00;6.72;;;-1.50;99.90;;;;;;5047384;28;20505;-83
2022/03/05 05:04:44;;;;;;;16.88;7.28;;;-1.50;99.90;;;;;;5062298;28;20080;-82
2022/03/05 05:07:10;;;;;;;18.35;7.45;;;-1.60;99.90;;;;;;5063721;28;20036;-82
2022/03/05 05:09:36;;;;;;;19.00;7.55;;;-1.50;99.90;;;;;;5081885;28;20064;-83
2022/03/05 05:12:01;;;;;;;18.45;7.95;;;-1.50;99.90;;;;;;5046011;28;20040;-82
2022/03/05 05:14:27;;;;;;;17.45;7.88;;;-1.50;99.90;;;;;;5081762;28;20059;-83
2022/03/05 05:16:53;;;;;;;17.75;7.72;;;-1.50;99.90;;;;;;5062802;28;20139;-83
2022/03/05 05:19:24;;;;;;;20.52;7.82;;;-1.60;99.90;;;;;;5062673;28;20071;-83
2022/03/05 05:21:55;;;;;;;17.65;7.38;;;-1.40;99.90;;;;;;5063522;28;20043;-83
2022/03/05 05:24:22;;;;;;;18.38;7.45;;;-1.60;99.90;;;;;;5045747;28;20048;-83
2022/03/05 05:26:48;;;;;;;20.27;8.15;;;-1.60;99.90;;;;;;5063097;28;20402;-83
2022/03/05 05:29:13;;;;;;;19.33;7.65;;;-1.60;99.90;;;;;;5062341;28;20063;-82
2022/03/05 05:31:44;;;;;;;20.33;8.15;;;-1.60;99.90;;;;;;5045362;28;20048;-83
2022/03/05 05:34:10;;;;;;;19.13;7.45;;;-1.70;99.90;;;;;;5062190;28;20052;-83
2022/03/05 05:36:39;;;;;;;21.65;7.63;;;-1.60;99.90;;;;;;5080961;28;20118;-83
2022/03/05 05:39:09;;;;;;;18.15;7.25;;;-1.70;99.90;;;;;;5062051;28;20041;-82
2022/03/05 05:41:35;;;;;;;20.10;7.30;;;-1.70;99.90;;;;;;5080018;28;20050;-83
2022/03/05 05:44:03;;;;;;;18.98;7.28;;;-1.70;99.90;;;;;;5062375;28;20085;-83
2022/03/05 05:46:29;;;;;;;21.90;8.27;;;-1.70;99.90;;;;;;5062768;28;20096;-83
2022/03/05 05:48:56;;;;;;;18.15;7.53;;;-1.60;99.90;;;;;;5081425;28;20082;-82
2022/03/05 05:51:22;;;;;;;19.35;7.50;;;-1.70;99.90;;;;;;5045925;28;20056;-82
2022/03/05 05:53:48;;;;;;;19.52;8.05;;;-1.70;99.90;;;;;;5045427;28;20150;-83
2022/03/05 05:56:13;;;;;;;20.17;7.63;;;-1.70;99.90;;;;;;5062467;28;20052;-83
2022/03/05 05:58:39;;;;;;;21.30;7.68;;;-1.70;99.90;;;;;;5061802;28;20055;-83
2022/03/05 06:01:05;;;;;;;18.45;7.35;;;-1.70;99.90;;;;;;5046372;28;20036;-83
2022/03/05 06:03:31;;;;;;;19.88;7.80;;;-1.80;99.90;;;;;;5061628;28;20048;-83
2022/03/05 06:05:59;;;;;;;21.27;8.30;;;-1.80;99.90;;;;;;5061084;28;20086;-83
2022/03/05 06:08:25;;;;;;;19.42;7.88;;;-1.80;99.90;;;;;;5061132;28;20047;-83
2022/03/05 06:10:51;;;;;;;17.77;7.45;;;-1.80;99.90;;;;;;5060713;28;20047;-82
2022/03/05 06:13:18;;;;;;;21.23;7.85;;;-1.30;99.90;;;;;;5061385;28;20051;-83
2022/03/05 06:15:44;;;;;;;18.15;6.80;;;-1.80;99.90;;;;;;5060800;28;20509;-83
2022/03/05 06:18:10;;;;;;;18.23;6.60;;;-1.90;99.90;;;;;;5045562;28;20056;-83
2022/03/05 06:20:36;;;;;;;19.63;7.40;;;-1.80;99.90;;;;;;5079930;28;20037;-83
2022/03/05 06:23:02;;;;;;;18.90;6.65;;;-1.80;99.90;;;;;;5061670;28;20483;-83
2022/03/05 06:25:28;;;;;;;21.25;7.90;;;-1.90;99.90;;;;;;5079646;28;20043;-83
2022/03/05 06:27:54;;;;;;;17.67;7.53;;;-1.80;99.90;;;;;;5060909;28;20037;-83
2022/03/05 06:30:21;;;;;;;18.52;7.47;;;-1.80;99.90;;;;;;5061638;28;20048;-83
2022/03/05 06:32:47;;;;;;;19.52;7.22;;;-1.80;99.90;;;;;;5080070;28;20093;-83
2022/03/05 06:35:12;;;;;;;17.83;7.70;;;-1.80;99.90;;;;;;5063848;28;20076;-83
2022/03/05 06:37:38;;;;;;;19.65;7.82;;;-1.80;99.90;;;;;;5070395;28;20040;-82
2022/03/05 06:40:06;;;;;;;16.00;6.85;;;-1.80;99.90;;;;;;5070276;28;20131;-83
2022/03/05 06:42:32;;;;;;;19.23;7.45;;;-1.80;99.90;;;;;;5075383;28;20033;-83
2022/03/05 06:44:58;;;;;;;20.25;7.30;;;-1.80;99.90;;;;;;5092854;28;20051;-83
2022/03/05 06:47:23;;;;;;;16.10;7.07;;;-1.80;99.90;;;;;;5050587;28;20040;-83
2022/03/05 06:49:49;;;;;;;20.70;8.15;;;-1.70;99.90;;;;;;5081334;28;20036;-83
2022/03/05 06:52:15;;;;;;;19.23;8.10;;;-1.70;99.90;;;;;;5046598;28;20041;-83
2022/03/05 06:54:41;;;;;;;15.07;6.70;;;-1.70;99.90;;;;;;5048704;28;20052;-83
2022/03/05 06:57:07;;;;;;;18.98;8.13;;;-1.60;99.90;;;;;;5063646;28;20049;-83
2022/03/05 06:59:34;;;;;;;18.88;7.00;;;-1.60;99.90;;;;;;5063614;28;20055;-83
2022/03/05 07:01:59;;;;;;;17.92;7.53;;;-1.60;99.90;;;;;;5063688;28;20062;-83
2022/03/05 07:04:25;;;;;;;15.55;6.93;;;-1.50;99.90;;;;;;5063649;28;20084;-83
2022/03/05 07:06:51;;;;;;;18.73;7.80;;;-1.60;99.90;;;;;;5047199;28;20047;-83
2022/03/05 07:09:16;;;;;;;17.90;7.40;;;-1.50;99.90;;;;;;5082012;28;20051;-83
2022/03/05 07:11:42;;;;;;;17.50;7.50;;;-1.50;99.90;;;;;;5063933;28;20048;-83
2022/03/05 07:14:08;;;;;;;18.25;6.85;;;-1.50;99.90;;;;;;5081442;28;20082;-83
2022/03/05 07:16:34;;;;;;;18.38;6.78;;;-1.40;99.90;;;;;;5064866;28;20048;-83
2022/03/05 07:19:00;;;;;;;15.23;6.60;;;-1.40;99.90;;;;;;5064421;28;20060;-83
2022/03/05 07:21:26;;;;;;;17.20;6.85;;;-1.40;99.90;;;;;;5063917;28;20052;-83
2022/03/05 07:23:51;;;;;;;18.77;7.00;;;-1.30;99.90;;;;;;5082200;28;20083;-83
2022/03/05 07:26:18;;;;;;;15.38;6.85;;;-1.30;99.90;;;;;;5064164;28;20040;-83
2022/03/05 07:28:47;;;;;;;15.65;6.40;;;-1.20;99.90;;;;;;5034131;28;20067;-83
2022/03/05 07:31:13;;;;;;;15.35;6.70;;;-1.20;99.90;;;;;;5050261;28;20036;-83
2022/03/05 07:33:38;;;;;;;16.25;7.28;;;-1.10;99.90;;;;;;5067930;28;20128;-83
2022/03/05 07:36:04;;;;;;;15.98;6.82;;;-1.10;99.90;;;;;;5067388;28;20147;-83
2022/03/05 07:38:31;;;;;;;15.25;6.80;;;-1.00;99.90;;;;;;5084713;28;20036;-83
2022/03/05 07:40:58;;;;;;;16.00;6.72;;;-0.90;99.90;;;;;;5065948;28;20041;-83
2022/03/05 07:43:23;;;;;;;13.95;6.38;;;-0.90;99.90;;;;;;5066902;28;20070;-83
2022/03/05 07:45:49;;;;;;;17.17;6.50;;;-0.80;99.90;;;;;;5067115;28;20036;-83
2022/03/05 07:48:19;;;;;;;15.25;7.00;;;-0.70;99.90;;;;;;5065998;28;20158;-82
2022/03/05 07:50:46;;;;;;;14.70;6.63;;;-0.70;99.90;;;;;;5084550;28;20044;-82
2022/03/05 07:53:13;;;;;;;14.10;6.57;;;-0.70;99.90;;;;;;5084326;28;20055;-82
2022/03/05 07:55:39;;;;;;;15.10;6.45;;;-0.60;99.90;;;;;;5066395;28;20044;-82
2022/03/05 07:58:04;;;;;;;14.88;6.20;;;-0.50;99.90;;;;;;5065665;28;20444;-82
2022/03/05 08:00:30;;;;;;;16.77;6.43;;;-0.50;99.90;;;;;;5084124;28;20127;-83
2022/03/05 08:02:56;;;;;;;14.45;6.75;;;-0.40;99.90;;;;;;5048629;28;20048;-82
2022/03/05 08:05:23;;;;;;;14.70;6.50;;;-0.40;99.90;;;;;;5083472;28;20052;-82
2022/03/05 08:07:49;;;;;;;14.10;5.72;;;-0.30;99.90;;;;;;5066674;28;20048;-82
2022/03/05 08:10:15;;;;;;;16.35;6.80;;;-0.30;99.90;;;;;;5083443;28;20060;-82
2022/03/05 08:12:41;;;;;;;15.02;6.43;;;-0.20;99.90;;;;;;5048839;28;20068;-82
2022/03/05 08:15:09;;;;;;;14.05;6.43;;;-0.20;99.90;;;;;;5048352;28;20090;-82
2022/03/05 08:17:35;;;;;;;14.80;6.50;;;-0.10;99.90;;;;;;5064573;28;20070;-82
2022/03/05 08:20:01;;;;;;;13.73;6.07;;;-0.10;99.90;;;;;;5066107;28;20046;-82
2022/03/05 08:22:27;;;;;;;17.23;7.03;;;0.00;99.90;;;;;;5048676;28;20032;-82
2022/03/05 08:24:52;;;;;;;15.38;6.95;;;0.10;99.90;;;;;;5065159;28;20078;-82
2022/03/05 08:27:18;;;;;;;16.13;7.07;;;0.10;99.90;;;;;;5083467;28;20044;-82
2022/03/05 08:29:44;;;;;;;17.95;7.82;;;0.10;99.90;;;;;;5064365;28;20052;-83
2022/03/05 08:32:10;;;;;;;18.40;7.72;;;0.30;99.90;;;;;;5064262;28;20403;-81
2022/03/05 08:34:35;;;;;;;15.18;7.28;;;0.30;99.90;;;;;;5063575;28;20040;-81
2022/03/05 08:37:02;;;;;;;21.35;7.97;;;0.40;99.90;;;;;;5032067;28;20041;-82
2022/03/05 08:39:28;;;;;;;16.38;7.60;;;0.50;99.90;;;;;;5056815;22;20033;-82
2022/03/05 08:41:55;;;;;;;17.20;7.18;;;0.50;99.90;;;;;;5053428;23;20055;-82
2022/03/05 08:44:20;;;;;;;17.08;6.88;;;0.60;99.90;;;;;;5047828;28;20057;-82
2022/03/05 08:46:46;;;;;;;17.92;7.13;;;0.70;99.90;;;;;;5064133;28;20547;-82
2022/03/05 08:49:12;;;;;;;17.63;7.28;;;0.80;99.90;;;;;;5064077;28;20045;-82
2022/03/05 08:51:38;;;;;;;20.08;7.30;;;0.80;99.90;;;;;;5072349;22;20045;-82
2022/03/05 08:54:04;;;;;;;18.25;8.10;;;0.90;99.90;;;;;;5064706;28;20048;-82
2022/03/05 08:56:30;;;;;;;17.90;7.40;;;0.90;99.90;;;;;;5064598;28;20076;-82
2022/03/05 08:58:55;;;;;;;18.25;8.05;;;1.10;99.90;;;;;;5081616;28;20049;-82
2022/03/05 09:01:21;;;;;;;20.13;8.40;;;1.10;99.90;;;;;;5064181;28;20053;-83
2022/03/05 09:03:47;;;;;;;19.48;7.63;;;1.20;99.90;;;;;;5081968;28;20044;-82
2022/03/05 09:06:14;;;;;;;18.75;8.15;;;1.30;99.90;;;;;;5064214;28;20047;-82
2022/03/05 09:08:39;;;;;;;18.38;8.25;;;1.50;99.90;;;;;;5081616;28;20045;-82
2022/03/05 09:11:05;;;;;;;18.65;8.70;;;1.70;99.90;;;;;;5063501;28;20051;-82
2022/03/05 09:13:31;;;;;;;19.20;8.65;;;1.60;99.90;;;;;;5081643;28;20048;-82
2022/03/05 09:15:57;;;;;;;20.55;8.13;;;1.60;99.90;;;;;;5081249;28;20047;-82
2022/03/05 09:18:22;;;;;;;22.38;8.77;;;1.70;99.90;;;;;;5063295;28;20404;-82
2022/03/05 09:20:48;;;;;;;23.27;9.27;;;1.80;99.90;;;;;;5063152;28;20441;-82
2022/03/05 09:23:15;;;;;;;20.23;9.48;;;1.90;99.90;;;;;;5046750;28;20107;-82
2022/03/05 09:25:40;;;;;;;21.50;8.98;;;2.00;99.90;;;;;;5047532;28;20044;-82
2022/03/05 09:28:06;;;;;;;23.33;9.38;;;2.00;99.90;;;;;;5063697;28;20055;-82
2022/03/05 09:30:32;;;;;;;23.35;9.23;;;2.10;99.90;;;;;;5062897;28;20040;-82
2022/03/05 09:32:58;;;;;;;23.10;9.25;;;2.10;99.90;;;;;;5063061;28;20110;-82
2022/03/05 09:35:24;;;;;;;19.40;8.95;;;2.30;99.90;;;;;;5046588;28;20082;-82
2022/03/05 09:37:50;;;;;;;24.67;9.48;;;2.20;99.90;;;;;;5062913;28;20067;-82
2022/03/05 09:40:15;;;;;;;24.85;9.95;;;2.40;99.90;;;;;;5046626;28;20143;-83
2022/03/05 09:42:45;;;;;;;22.00;9.77;;;2.40;99.90;;;;;;5045487;28;20044;-82
2022/03/05 09:45:13;;;;;;;22.02;9.38;;;2.50;99.90;;;;;;5080816;28;20059;-82
2022/03/05 09:47:40;;;;;;;20.15;8.68;;;2.50;99.90;;;;;;5080248;28;20048;-82
2022/03/05 09:50:08;;;;;;;20.85;9.45;;;2.60;99.90;;;;;;5062103;28;20044;-82
2022/03/05 09:52:33;;;;;;;20.98;9.38;;;2.60;99.90;;;;;;5069891;28;20040;-82
2022/03/05 09:55:00;;;;;;;18.55;9.23;;;3.10;99.90;;;;;;5070085;28;20044;-82
2022/03/05 09:57:25;;;;;;;22.02;9.48;;;3.00;99.90;;;;;;5069937;28;20040;-82
2022/03/05 09:59:51;;;;;;;22.70;10.02;;;3.30;99.90;;;;;;5065141;28;20055;-82
2022/03/05 10:02:17;;;;;;;21.45;9.38;;;3.00;99.90;;;;;;5046104;28;20048;-82
2022/03/05 10:04:43;;;;;;;19.90;9.05;;;3.20;99.90;;;;;;5063373;28;20037;-82
2022/03/05 10:07:17;;;;;;;19.95;9.63;;;3.20;99.90;;;;;;5062963;28;20071;-82
2022/03/05 10:09:47;;;;;;;20.70;9.30;;;3.20;99.90;;;;;;5063201;28;20441;-82
2022/03/05 10:12:31;;;;;;;25.48;10.20;;;3.40;99.90;;;;;;5080482;28;20048;-82
2022/03/05 10:15:07;;;;;;;23.05;9.82;;;3.50;99.90;;;;;;5080954;28;20040;-82
2022/03/05 10:17:46;;;;;;;22.98;9.88;;;3.50;99.90;;;;;;5046671;28;20047;-82
2022/03/05 10:20:12;;;;;;;24.77;10.70;;;3.60;99.90;;;;;;5070901;28;20056;-82
2022/03/05 10:22:37;;;;;;;23.38;10.40;;;3.70;99.90;;;;;;5073609;28;20048;-82
2022/03/05 10:25:03;;;;;;;21.17;9.77;;;3.80;99.90;;;;;;5049697;28;20040;-82
2022/03/05 10:27:30;;;;;;;22.50;10.13;;;3.90;99.90;;;;;;5046899;28;20036;-82
2022/03/05 10:29:56;;;;;;;21.48;10.35;;;4.00;99.90;;;;;;5063355;28;20075;-82
2022/03/05 10:32:22;;;;;;;21.98;9.77;;;4.10;99.90;;;;;;5046596;28;20044;-82
2022/03/05 10:34:49;;;;;;;22.30;9.88;;;4.50;99.90;;;;;;5063282;28;20485;-82
2022/03/05 10:37:16;;;;;;;19.88;9.40;;;4.20;99.90;;;;;;5045679;28;20426;-82
2022/03/05 10:39:42;;;;;;;20.85;10.10;;;4.20;99.90;;;;;;5046143;28;20376;-82
2022/03/05 10:42:20;;;;;;;22.42;10.05;;;4.30;99.90;;;;;;5045991;28;20054;-82
2022/03/05 10:45:05;;;;;;;23.05;10.20;;;4.40;99.90;;;;;;5046502;28;20059;-82
2022/03/05 10:47:38;;;;;;;22.50;10.45;;;4.50;99.90;;;;;;5046119;28;20037;-82
2022/03/05 10:50:22;;;;;;;19.88;9.90;;;4.60;99.90;;;;;;5046539;28;20083;-82
2022/03/05 10:52:51;;;;;;;24.17;11.05;;;4.60;99.90;;;;;;5062482;28;20056;-82
2022/03/05 10:55:18;;;;;;;21.38;10.18;;;5.20;99.90;;;;;;5063539;28;20063;-82
2022/03/05 10:58:03;;;;;;;21.85;10.35;;;5.00;99.90;;;;;;5045737;28;20044;-82
2022/03/05 11:00:30;;;;;;;19.52;9.63;;;5.20;99.90;;;;;;5080230;28;20070;-82
2022/03/05 11:03:03;;;;;;;22.58;10.15;;;5.50;99.90;;;;;;5067259;28;20059;-82
2022/03/05 11:05:29;;;;;;;22.13;9.52;;;5.10;99.90;;;;;;5049935;28;20045;-82
2022/03/05 11:07:56;;;;;;;23.02;10.57;;;5.20;99.90;;;;;;5066607;28;20162;-82
2022/03/05 11:10:26;;;;;;;22.40;10.52;;;5.20;99.90;;;;;;5050581;28;20080;-82
2022/03/05 11:12:56;;;;;;;21.30;9.85;;;5.90;99.90;;;;;;5052278;28;20483;-82
2022/03/05 11:15:23;;;;;;;22.90;10.52;;;5.50;99.90;;;;;;5069642;28;20050;-83
2022/03/05 11:17:49;;;;;;;23.00;9.98;;;6.00;99.90;;;;;;5051083;28;20055;-83
2022/03/05 11:20:15;;;;;;;22.75;11.07;;;5.60;99.90;;;;;;5049988;28;20048;-82
2022/03/05 11:22:49;;;;;;;22.20;10.63;;;5.80;99.90;;;;;;5067569;28;20064;-82
2022/03/05 11:25:17;;;;;;;25.05;10.77;;;5.60;99.90;;;;;;5050194;28;20071;-81
2022/03/05 11:28:00;;;;;;;21.60;9.82;;;5.80;99.90;;;;;;5048415;28;20380;-81
2022/03/05 11:30:27;;;;;;;21.35;10.43;;;5.70;99.90;;;;;;5067956;28;20151;-83
2022/03/05 11:32:53;;;;;;;23.33;11.77;;;5.70;99.90;;;;;;5053368;28;20052;-87
2022/03/05 11:35:31;;;;;;;21.35;10.32;;;5.90;99.90;;;;;;5084718;28;20052;-82
2022/03/05 11:37:56;;;;;;;19.67;9.90;;;6.60;99.90;;;;;;5050169;28;20040;-81
2022/03/05 11:40:42;;;;;;;20.02;10.43;;;6.20;99.90;;;;;;5083858;28;20055;-81
2022/03/05 11:43:24;;;;;;;21.52;10.68;;;6.30;99.90;;;;;;5065745;28;20052;-81
2022/03/05 11:46:02;;;;;;;20.27;9.90;;;6.70;99.90;;;;;;5066591;28;20055;-81
2022/03/05 11:48:30;;;;;;;20.45;10.20;;;6.30;99.90;;;;;;5065501;28;20135;-81
2022/03/05 11:51:16;;;;;;;22.80;10.45;;;6.30;99.90;;;;;;5066667;28;20094;-81
2022/03/05 11:53:43;;;;;;;22.05;10.65;;;7.00;99.90;;;;;;5065678;28;20098;-81
2022/03/05 11:56:26;;;;;;;22.60;11.10;;;6.60;99.90;;;;;;5066047;28;20052;-81
2022/03/05 11:58:52;;;;;;;20.85;10.07;;;6.70;99.90;;;;;;5049774;28;20047;-81
2022/03/05 12:01:39;;;;;;;21.55;10.15;;;6.80;99.90;;;;;;5049158;28;20479;-81
2022/03/05 12:04:25;;;;;;;22.88;9.95;;;7.10;99.90;;;;;;5084367;28;20087;-81
2022/03/05 12:06:52;;;;;;;;;;;6.70;99.90;;;;;;5065801;28;20055;-81
2022/03/05 12:09:37;;;;;;;17.52;9.15;;;6.60;99.90;;;;;;5048509;28;19984;-81
2022/03/05 12:12:07;;;;;;;21.35;10.88;;;6.60;99.90;;;;;;5065837;28;20064;-81
2022/03/05 12:14:54;;;;;;;17.67;9.20;;;6.60;99.90;;;;;;5065963;28;20048;-81
2022/03/05 12:17:22;;;;;;;21.95;10.05;;;6.90;99.90;;;;;;5066903;28;20055;-81
2022/03/05 12:19:48;;;;;;;20.80;10.38;;;7.10;99.90;;;;;;5066061;28;20048;-81
2022/03/05 12:22:14;;;;;;;20.73;10.10;;;7.20;99.90;;;;;;5049594;28;20070;-82
2022/03/05 12:24:40;;;;;;;20.60;10.20;;;7.30;99.90;;;;;;5066012;28;20074;-81
2022/03/05 12:27:11;;;;;;;19.80;9.52;;;7.70;99.90;;;;;;5065133;28;20052;-81
2022/03/05 12:29:55;;;;;;;17.80;9.23;;;7.80;99.90;;;;;;5066098;28;20052;-81
2022/03/05 12:32:29;;;;;;;18.88;9.45;;;7.90;99.90;;;;;;5047995;28;20055;-81
2022/03/05 12:35:05;;;;;;;20.23;10.38;;;8.20;99.90;;;;;;5049117;28;20522;-81
2022/03/05 12:37:32;;;;;;;19.17;9.93;;;8.40;99.90;;;;;;5083594;28;20043;-81